createdAt,value
2023-01-17T00:00:11.883Z,-1.65
2023-01-17T00:03:23.443Z,-1.68
2023-01-17T00:06:52.141Z,-1.71
2023-01-17T00:10:07.508Z,-1.71
2023-01-17T00:13:18.921Z,-1.69
2023-01-17T00:16:30.039Z,-1.66
2023-01-17T00:20:20.753Z,-1.61
2023-01-17T00:23:52.066Z,-1.57
2023-01-17T00:27:14.456Z,-1.52
2023-01-17T00:30:24.365Z,-1.48
2023-01-17T00:33:35.035Z,-1.47
2023-01-17T00:36:44.691Z,-1.46
2023-01-17T00:39:54.327Z,-1.47
2023-01-17T00:43:23.693Z,-1.49
2023-01-17T00:46:52.742Z,-1.52
2023-01-17T00:50:21.373Z,-1.54
2023-01-17T00:53:49.712Z,-1.57
2023-01-17T00:57:19.261Z,-1.60
2023-01-17T01:00:47.913Z,-1.65
2023-01-17T01:04:16.537Z,-1.70
2023-01-17T01:07:44.890Z,-1.75
2023-01-17T01:11:13.205Z,-1.80
2023-01-17T01:14:41.660Z,-1.83
2023-01-17T01:18:10.309Z,-1.88
2023-01-17T01:21:38.633Z,-1.93
2023-01-17T01:25:07.307Z,-1.95
2023-01-17T01:28:35.645Z,-1.95
2023-01-17T01:32:04.134Z,-1.93
2023-01-17T01:35:15.369Z,-1.88
2023-01-17T01:38:28.738Z,-1.81
2023-01-17T01:41:39.214Z,-1.75
2023-01-17T01:44:51.429Z,-1.71
2023-01-17T01:48:05.408Z,-1.70
2023-01-17T01:51:45.789Z,-1.70
2023-01-17T01:54:59.255Z,-1.71
2023-01-17T01:58:14.489Z,-1.73
2023-01-17T02:01:26.314Z,-1.75
2023-01-17T02:04:39.249Z,-1.80
2023-01-17T02:07:53.058Z,-1.85
2023-01-17T02:11:05.011Z,-1.92
2023-01-17T02:14:18.079Z,-1.99
2023-01-17T02:18:17.914Z,-2.05
2023-01-17T02:21:32.796Z,-2.13
2023-01-17T02:25:08.153Z,-2.21
2023-01-17T02:28:30.037Z,-2.25
2023-01-17T02:39:43.390Z,-2.44
2023-01-17T02:42:57.103Z,-2.48
2023-01-17T02:46:09.763Z,-2.52
2023-01-17T02:49:22.294Z,-2.55
2023-01-17T02:52:45.213Z,-2.59
2023-01-17T02:56:34.650Z,-2.62
2023-01-17T02:59:49.927Z,-2.65
2023-01-17T03:03:05.764Z,-2.69
2023-01-17T03:06:19.884Z,-2.72
2023-01-17T03:09:32.551Z,-2.71
2023-01-17T03:12:43.589Z,-2.67
2023-01-17T03:15:54.453Z,-2.63
2023-01-17T03:19:05.775Z,-2.57
2023-01-17T03:22:16.695Z,-2.52
2023-01-17T03:25:27.733Z,-2.46
2023-01-17T03:28:39.196Z,-2.41
2023-01-17T03:31:50.143Z,-2.37
2023-01-17T03:35:01.176Z,-2.35
2023-01-17T03:38:12.171Z,-2.36
2023-01-17T03:41:23.423Z,-2.37
2023-01-17T03:44:34.397Z,-2.39
2023-01-17T03:47:45.164Z,-2.41
2023-01-17T03:50:56.542Z,-2.42
2023-01-17T03:54:07.706Z,-2.42
2023-01-17T03:57:18.775Z,-2.39
2023-01-17T04:00:29.996Z,-2.34
2023-01-17T04:03:43.010Z,-2.30
2023-01-17T04:06:59.306Z,-2.27
2023-01-17T04:10:11.068Z,-2.25
2023-01-17T04:13:22.814Z,-2.26
2023-01-17T04:16:34.823Z,-2.26
2023-01-17T04:19:45.979Z,-2.29
2023-01-17T04:22:57.309Z,-2.32
2023-01-17T04:26:08.284Z,-2.37
2023-01-17T04:29:19.258Z,-2.42
2023-01-17T04:32:30.213Z,-2.48
2023-01-17T04:35:41.173Z,-2.53
2023-01-17T04:38:52.123Z,-2.56
2023-01-17T04:42:03.287Z,-2.58
2023-01-17T04:45:16.078Z,-2.57
2023-01-17T04:48:27.421Z,-2.55
2023-01-17T04:51:38.890Z,-2.52
2023-01-17T04:54:49.813Z,-2.48
2023-01-17T04:58:00.639Z,-2.45
2023-01-17T05:01:12.279Z,-2.40
2023-01-17T05:04:24.104Z,-2.39
2023-01-17T05:11:23.431Z,-2.40
2023-01-17T05:14:34.708Z,-2.43
2023-01-17T05:17:38.042Z,-2.46
2023-01-17T05:20:49.289Z,-2.49
2023-01-17T05:24:22.990Z,-2.53
2023-01-17T05:27:34.784Z,-2.58
2023-01-17T05:33:53.448Z,-2.64
2023-01-17T05:36:43.935Z,-2.66
2023-01-17T05:39:37.629Z,-2.66
2023-01-17T05:42:28.674Z,-2.65
2023-01-17T05:45:22.148Z,-2.62
2023-01-17T05:48:12.724Z,-2.59
2023-01-17T05:51:04.631Z,-2.55
2023-01-17T05:53:55.205Z,-2.52
2023-01-17T05:56:46.586Z,-2.48
2023-01-17T05:59:37.703Z,-2.45
2023-01-17T06:02:28.474Z,-2.45
2023-01-17T06:05:19.007Z,-2.46
2023-01-17T06:08:14.200Z,-2.48
2023-01-17T06:11:04.759Z,-2.51
2023-01-17T06:13:56.679Z,-2.55
2023-01-17T06:16:49.998Z,-2.59
2023-01-17T06:19:45.579Z,-2.62
2023-01-17T06:22:36.152Z,-2.67
2023-01-17T06:25:26.799Z,-2.71
2023-01-17T06:28:19.337Z,-2.75
2023-01-17T06:31:10.373Z,-2.78
2023-01-17T06:34:02.754Z,-2.81
2023-01-17T06:36:54.654Z,-2.83
2023-01-17T06:39:45.017Z,-2.85
2023-01-17T06:42:35.685Z,-2.85
2023-01-17T06:45:27.365Z,-2.84
2023-01-17T06:48:18.056Z,-2.82
2023-01-17T06:51:08.802Z,-2.78
2023-01-17T06:53:59.399Z,-2.73
2023-01-17T06:56:49.920Z,-2.69
2023-01-17T06:59:42.976Z,-2.66
2023-01-17T07:03:07.977Z,-2.65
2023-01-17T07:05:58.611Z,-2.66
2023-01-17T07:08:55.829Z,-2.67
2023-01-17T07:11:46.417Z,-2.68
2023-01-17T07:14:36.952Z,-2.69
2023-01-17T07:17:27.349Z,-2.70
2023-01-17T07:24:28.708Z,-2.73
2023-01-17T07:27:51.977Z,-2.72
2023-01-17T07:30:43.015Z,-2.70
2023-01-17T07:33:50.725Z,-2.67
2023-01-17T07:37:08.844Z,-2.62
2023-01-17T07:40:02.669Z,-2.59
2023-01-17T07:43:20.655Z,-2.56
2023-01-17T07:46:11.710Z,-2.53
2023-01-17T07:49:03.835Z,-2.50
2023-01-17T07:51:55.497Z,-2.50
2023-01-17T08:03:35.279Z,-2.53
2023-01-17T08:11:04.544Z,-2.51
2023-01-17T08:14:50.771Z,-2.48
2023-01-17T08:17:41.206Z,-2.42
2023-01-17T08:20:58.743Z,-2.36
2023-01-17T08:23:50.810Z,-2.31
2023-01-17T08:40:37.612Z,-2.29
2023-01-17T08:43:28.683Z,-2.30
2023-01-17T08:46:47.074Z,-2.32
2023-01-17T08:49:37.605Z,-2.33
2023-01-17T08:52:29.272Z,-2.30
2023-01-17T08:55:23.290Z,-2.27
2023-01-17T08:58:14.017Z,-2.24
2023-01-17T09:01:05.476Z,-2.20
2023-01-17T09:03:56.279Z,-2.15
2023-01-17T09:06:48.626Z,-2.11
2023-01-17T09:09:39.211Z,-2.08
2023-01-17T09:12:32.656Z,-2.05
2023-01-17T09:15:23.156Z,-2.03
2023-01-17T09:18:13.687Z,-2.02
2023-01-17T09:24:47.985Z,-2.00
2023-01-17T09:27:38.644Z,-2.00
2023-01-17T09:30:29.100Z,-2.01
2023-01-17T09:33:19.841Z,-2.01
2023-01-17T09:36:10.474Z,-2.00
2023-01-17T09:39:01.004Z,-1.96
2023-01-17T09:41:56.536Z,-1.91
2023-01-17T09:44:48.352Z,-1.85
2023-01-17T09:47:42.712Z,-1.80
2023-01-17T09:50:34.660Z,-1.74
2023-01-17T09:53:25.224Z,-1.67
2023-01-17T09:56:17.280Z,-1.61
2023-01-17T09:59:11.663Z,-1.57
2023-01-17T10:05:24.043Z,-1.49
2023-01-17T10:09:04.838Z,-1.45
2023-01-17T10:17:10.357Z,-1.39
2023-01-17T10:28:47.167Z,-1.18
2023-01-17T10:39:17.259Z,-0.99
2023-01-17T10:42:18.325Z,-0.97
2023-01-17T10:45:46.813Z,-0.95
2023-01-17T10:48:40.031Z,-0.94
2023-01-17T10:51:43.261Z,-0.91
2023-01-17T10:54:50.005Z,-0.88
2023-01-17T10:57:42.348Z,-0.84
2023-01-17T11:00:45.614Z,-0.78
2023-01-17T11:03:36.751Z,-0.71
2023-01-17T11:06:28.526Z,-0.65
2023-01-17T11:09:19.119Z,-0.58
2023-01-17T11:16:02.406Z,-0.49
2023-01-17T11:19:15.590Z,-0.46
2023-01-17T11:22:07.572Z,-0.43
2023-01-17T11:24:58.483Z,-0.38
2023-01-17T11:28:15.574Z,-0.34
2023-01-17T11:31:08.184Z,-0.28
2023-01-17T11:34:09.688Z,-0.21
2023-01-17T11:37:19.580Z,-0.12
2023-01-17T11:44:36.188Z,0.07
2023-01-17T11:47:26.891Z,0.13
2023-01-17T11:50:26.048Z,0.18
2023-01-17T11:53:21.176Z,0.37
2023-01-17T11:56:13.295Z,2.45
2023-01-17T11:59:20.026Z,5.97
2023-01-17T12:02:38.985Z,9.16
2023-01-17T12:05:39.824Z,12.08
2023-01-17T12:08:44.076Z,13.94
2023-01-17T12:11:37.915Z,15.25
2023-01-17T12:14:34.402Z,16.47
2023-01-17T12:17:46.024Z,17.33
2023-01-17T12:20:41.557Z,17.70
2023-01-17T12:23:44.854Z,17.87
2023-01-17T12:26:41.501Z,17.98
2023-01-17T12:29:45.023Z,17.44
2023-01-17T12:33:07.863Z,15.68
2023-01-17T12:36:00.106Z,13.11
2023-01-17T12:38:50.519Z,11.30
2023-01-17T12:41:50.108Z,9.97
2023-01-17T12:44:46.729Z,9.07
2023-01-17T12:47:41.761Z,8.84
2023-01-17T12:50:35.131Z,9.09
2023-01-17T12:53:28.769Z,9.35
2023-01-17T12:56:22.713Z,9.59
2023-01-17T12:59:16.989Z,9.94
2023-01-17T13:02:36.143Z,10.04
2023-01-17T13:05:28.976Z,9.96
2023-01-17T13:08:25.040Z,9.72
2023-01-17T13:11:21.425Z,9.69
2023-01-17T13:14:12.054Z,9.77
2023-01-17T13:17:04.081Z,9.81
2023-01-17T13:19:58.989Z,9.73
2023-01-17T13:22:50.789Z,9.91
2023-01-17T13:25:43.655Z,10.16
2023-01-17T13:28:45.161Z,10.34
2023-01-17T13:32:00.116Z,10.38
2023-01-17T13:35:09.099Z,10.31
2023-01-17T13:38:10.790Z,10.14
2023-01-17T13:41:04.988Z,8.93
2023-01-17T13:44:09.300Z,7.50
2023-01-17T13:47:04.394Z,6.44
2023-01-17T13:49:56.769Z,5.56
2023-01-17T13:52:47.302Z,4.85
2023-01-17T13:55:47.214Z,4.33
2023-01-17T13:58:54.596Z,3.90
2023-01-17T14:01:52.361Z,3.56
2023-01-17T14:05:00.171Z,3.34
2023-01-17T14:07:55.903Z,3.13
2023-01-17T14:10:48.601Z,2.95
2023-01-17T14:13:40.126Z,2.80
2023-01-17T14:16:31.556Z,2.70
2023-01-17T14:19:27.922Z,2.61
2023-01-17T14:22:24.416Z,2.54
2023-01-17T14:25:17.643Z,2.45
2023-01-17T14:28:21.137Z,2.38
2023-01-17T14:31:14.177Z,2.30
2023-01-17T14:34:14.259Z,2.23
2023-01-17T14:37:30.192Z,2.16
2023-01-17T14:40:22.050Z,2.09
2023-01-17T14:43:13.610Z,2.03
2023-01-17T14:46:05.853Z,1.98
2023-01-17T14:49:02.607Z,1.94
2023-01-17T14:52:03.405Z,1.92
2023-01-17T14:54:54.017Z,1.89
2023-01-17T14:57:44.594Z,1.85
2023-01-17T15:00:40.795Z,1.83
2023-01-17T15:03:33.505Z,1.83
2023-01-17T15:06:25.227Z,1.85
2023-01-17T15:09:18.938Z,1.87
2023-01-17T15:12:13.665Z,1.88
2023-01-17T15:15:03.840Z,1.89
2023-01-17T15:18:42.661Z,1.87
2023-01-17T15:21:37.017Z,1.82
2023-01-17T15:24:29.638Z,1.81
2023-01-17T15:27:20.609Z,1.81
2023-01-17T15:30:15.954Z,1.83
2023-01-17T15:33:07.353Z,1.85
2023-01-17T15:36:10.439Z,1.86
2023-01-17T15:39:02.229Z,1.84
2023-01-17T15:41:55.064Z,1.82
2023-01-17T15:44:48.856Z,1.80
2023-01-17T15:48:19.866Z,1.76
2023-01-17T15:51:11.184Z,1.72
2023-01-17T15:54:31.181Z,1.66
2023-01-17T15:57:31.194Z,1.60
2023-01-17T16:00:26.596Z,1.54
2023-01-17T16:03:21.839Z,1.50
2023-01-17T16:06:29.550Z,1.47
2023-01-17T16:09:25.056Z,1.44
2023-01-17T16:12:15.329Z,1.39
2023-01-17T16:15:12.839Z,1.34
2023-01-17T16:18:19.162Z,1.26
2023-01-17T16:21:58.522Z,1.18
2023-01-17T16:24:48.982Z,1.09
2023-01-17T16:27:41.626Z,1.01
2023-01-17T16:30:32.647Z,0.96
2023-01-17T16:33:23.155Z,0.91
2023-01-17T16:36:16.607Z,0.87
2023-01-17T16:39:07.147Z,0.85
2023-01-17T16:42:00.553Z,0.83
2023-01-17T16:44:51.097Z,0.82
2023-01-17T16:47:42.883Z,0.79
2023-01-17T16:50:33.292Z,0.76
2023-01-17T16:53:25.357Z,0.71
2023-01-17T16:56:17.068Z,0.67
2023-01-17T16:59:07.746Z,0.62
2023-01-17T17:02:01.401Z,0.59
2023-01-17T17:04:51.622Z,0.56
2023-01-17T17:07:44.290Z,0.53
2023-01-17T17:10:34.931Z,0.48
2023-01-17T17:13:25.432Z,0.43
2023-01-17T17:16:17.755Z,0.38
2023-01-17T17:19:09.183Z,0.34
2023-01-17T17:22:01.729Z,0.30
2023-01-17T17:24:52.374Z,0.28
2023-01-17T17:27:42.934Z,0.25
2023-01-17T17:30:33.511Z,0.22
2023-01-17T17:33:24.114Z,0.17
2023-01-17T17:36:14.497Z,0.13
2023-01-17T17:39:06.928Z,0.09
2023-01-17T17:41:57.582Z,0.04
2023-01-17T17:44:48.509Z,0.00
2023-01-17T17:47:39.085Z,-0.00
2023-01-17T17:50:29.676Z,-0.01
2023-01-17T17:53:21.845Z,0.00
2023-01-17T17:56:12.301Z,0.00
2023-01-17T17:59:03.383Z,-0.02
2023-01-17T18:01:54.364Z,-0.05
2023-01-17T18:04:44.806Z,-0.07
2023-01-17T18:07:35.544Z,-0.09
2023-01-17T18:10:26.042Z,-0.09
2023-01-17T18:13:16.522Z,-0.09
2023-01-17T18:16:08.637Z,-0.07
2023-01-17T18:18:59.729Z,-0.07
2023-01-17T18:21:51.570Z,-0.09
2023-01-17T18:24:44.944Z,-0.11
2023-01-17T18:27:35.747Z,-0.13
2023-01-17T18:30:26.387Z,-0.15
2023-01-17T18:33:18.920Z,-0.14
2023-01-17T18:36:12.770Z,-0.14
2023-01-17T18:39:04.049Z,-0.13
2023-01-17T18:41:54.722Z,-0.15
2023-01-17T18:44:45.103Z,-0.16
2023-01-17T18:47:37.955Z,-0.18
2023-01-17T18:50:28.784Z,-0.21
2023-01-17T18:53:19.344Z,-0.23
2023-01-17T18:56:13.745Z,-0.24
2023-01-17T18:59:05.944Z,-0.23
2023-01-17T19:01:56.352Z,-0.22
2023-01-17T19:04:46.858Z,-0.21
2023-01-17T19:07:39.379Z,-0.21
2023-01-17T19:10:29.961Z,-0.21
2023-01-17T19:13:20.526Z,-0.22
2023-01-17T19:16:14.406Z,-0.22
2023-01-17T19:19:06.461Z,-0.20
2023-01-17T19:21:57.072Z,-0.20
2023-01-17T19:24:47.644Z,-0.19
2023-01-17T19:27:38.297Z,-0.20
2023-01-17T19:30:28.813Z,-0.20
2023-01-17T19:33:19.180Z,-0.19
2023-01-17T19:36:10.597Z,-0.17
2023-01-17T19:39:05.929Z,-0.16
2023-01-17T19:42:31.220Z,-0.15
2023-01-17T19:45:21.906Z,-0.16
2023-01-17T19:48:14.701Z,-0.18
2023-01-17T19:51:10.586Z,-0.20
2023-01-17T19:54:01.896Z,-0.20
2023-01-17T19:56:52.495Z,-0.20
2023-01-17T19:59:42.932Z,-0.20
2023-01-17T20:02:36.255Z,-0.20
2023-01-17T20:05:26.715Z,-0.23
2023-01-17T20:08:17.223Z,-0.25
2023-01-17T20:11:09.276Z,-0.25
2023-01-17T20:14:00.402Z,-0.24
2023-01-17T20:16:51.606Z,-0.23
2023-01-17T20:19:42.112Z,-0.24
2023-01-17T20:22:32.641Z,-0.26
2023-01-17T20:25:23.306Z,-0.29
2023-01-17T20:28:13.856Z,-0.31
2023-01-17T20:31:09.006Z,-0.32
2023-01-17T20:34:00.317Z,-0.32
2023-01-17T20:36:50.928Z,-0.32
2023-01-17T20:39:41.420Z,-0.33
2023-01-17T20:42:31.927Z,-0.34
2023-01-17T20:45:22.903Z,-0.34
2023-01-17T20:48:17.270Z,-0.33
2023-01-17T20:51:10.708Z,-0.31
2023-01-17T20:54:03.490Z,-0.29
2023-01-17T20:56:55.529Z,-0.27
2023-01-17T20:59:48.481Z,-0.26
2023-01-17T21:02:38.994Z,-0.25
2023-01-17T21:05:29.856Z,-0.23
2023-01-17T21:08:20.413Z,-0.19
2023-01-17T21:11:12.527Z,-0.16
2023-01-17T21:14:03.118Z,-0.14
2023-01-17T21:16:53.675Z,-0.12
2023-01-17T21:19:44.323Z,-0.11
2023-01-17T21:22:35.321Z,-0.10
2023-01-17T21:25:26.856Z,-0.09
2023-01-17T21:28:17.210Z,-0.08
2023-01-17T21:31:18.234Z,-0.08
2023-01-17T21:34:10.707Z,-0.09
2023-01-17T21:37:01.171Z,-0.09
2023-01-17T21:39:55.038Z,-0.09
2023-01-17T21:42:45.969Z,-0.08
2023-01-17T21:45:39.083Z,-0.04
2023-01-17T21:48:29.394Z,-0.03
2023-01-17T21:51:22.091Z,-0.04
2023-01-17T21:54:12.819Z,-0.03
2023-01-17T21:57:21.058Z,0.02
2023-01-17T22:00:14.646Z,0.06
2023-01-17T22:03:05.770Z,0.08
2023-01-17T22:05:58.117Z,0.11
2023-01-17T22:08:53.071Z,0.14
2023-01-17T22:12:18.582Z,0.17
2023-01-17T22:15:11.762Z,0.20
2023-01-17T22:18:02.291Z,0.22
2023-01-17T22:20:52.824Z,0.24
2023-01-17T22:23:46.726Z,0.24
2023-01-17T22:26:36.918Z,0.23
2023-01-17T22:29:28.108Z,0.23
2023-01-17T22:32:18.613Z,0.23
2023-01-17T22:35:09.987Z,0.23
2023-01-17T22:38:00.457Z,0.25
2023-01-17T22:40:50.992Z,0.26
2023-01-17T22:43:42.897Z,0.25
2023-01-17T22:46:35.781Z,0.23
2023-01-17T22:49:26.613Z,0.23
2023-01-17T22:52:17.112Z,0.25
2023-01-17T22:55:08.240Z,0.27
2023-01-17T22:57:58.747Z,0.28
2023-01-17T23:00:49.865Z,0.28
2023-01-17T23:03:41.977Z,0.25
2023-01-17T23:06:33.340Z,0.22
2023-01-17T23:09:23.858Z,0.20
2023-01-17T23:12:14.980Z,0.22
2023-01-17T23:15:22.513Z,0.23
2023-01-17T23:18:30.804Z,0.24
2023-01-17T23:21:22.430Z,0.25
2023-01-17T23:24:13.175Z,0.27
2023-01-17T23:27:21.040Z,0.28
2023-01-17T23:30:13.710Z,0.28
2023-01-17T23:33:05.324Z,0.28
2023-01-17T23:35:55.902Z,0.28
2023-01-17T23:38:46.407Z,0.27
2023-01-17T23:41:50.773Z,0.26
2023-01-17T23:44:41.405Z,0.29
2023-01-17T23:47:31.830Z,0.32
2023-01-17T23:50:22.469Z,0.35
2023-01-17T23:53:16.230Z,0.39
2023-01-17T23:56:11.843Z,0.40
2023-01-17T23:59:02.410Z,0.41
